createdAt,value
2019-05-19T00:02:00.484Z,67.95
2019-05-19T00:04:32.719Z,84.60
2019-05-19T00:07:02.215Z,100.42
2019-05-19T00:09:30.671Z,67.90
2019-05-19T00:11:59.075Z,107.00
2019-05-19T00:14:27.515Z,73.22
2019-05-19T00:16:55.944Z,92.55
2019-05-19T00:19:27.056Z,59.42
2019-05-19T00:21:55.441Z,84.75
2019-05-19T00:24:24.225Z,85.12
2019-05-19T00:26:52.685Z,101.78
2019-05-19T00:29:21.092Z,60.52
2019-05-19T00:31:52.263Z,80.72
2019-05-19T00:34:20.922Z,55.25
2019-05-19T00:36:49.345Z,72.55
2019-05-19T00:39:18.206Z,73.65
2019-05-19T00:41:49.367Z,87.22
2019-05-19T00:44:18.907Z,67.62
2019-05-19T00:46:47.433Z,55.43
2019-05-19T00:49:17.927Z,69.58
2019-05-19T00:51:50.602Z,55.65
2019-05-19T00:54:19.792Z,61.38
2019-05-19T00:56:48.840Z,71.62
2019-05-19T00:59:18.411Z,69.58
2019-05-19T01:01:46.829Z,54.50
2019-05-19T01:04:17.837Z,77.65
2019-05-19T01:06:47.473Z,79.87
2019-05-19T01:09:15.915Z,75.57
2019-05-19T01:11:44.345Z,67.20
2019-05-19T01:14:17.477Z,48.02
2019-05-19T01:16:45.893Z,78.00
2019-05-19T01:19:14.338Z,88.55
2019-05-19T01:21:44.512Z,46.85
2019-05-19T01:24:13.097Z,47.35
2019-05-19T01:26:41.511Z,66.22
2019-05-19T01:29:11.052Z,96.80
2019-05-19T01:31:42.042Z,74.72
2019-05-19T01:34:10.487Z,52.83
2019-05-19T01:36:41.469Z,91.45
2019-05-19T01:39:09.890Z,80.55
2019-05-19T01:41:42.046Z,86.20
2019-05-19T01:44:11.567Z,63.13
2019-05-19T01:46:42.554Z,63.28
2019-05-19T01:49:10.995Z,62.80
2019-05-19T01:51:40.545Z,60.78
2019-05-19T01:54:09.011Z,67.60
2019-05-19T01:56:37.410Z,58.00
2019-05-19T01:59:05.832Z,94.62
2019-05-19T02:01:34.246Z,67.12
2019-05-19T02:04:02.669Z,97.72
2019-05-19T02:06:31.117Z,58.33
2019-05-19T02:08:59.538Z,54.18
2019-05-19T02:11:28.020Z,57.25
2019-05-19T02:13:56.438Z,50.15
2019-05-19T02:16:28.677Z,46.75
2019-05-19T02:18:59.241Z,57.10
2019-05-19T02:21:30.395Z,58.92
2019-05-19T02:23:59.702Z,96.28
2019-05-19T02:26:28.322Z,78.80
2019-05-19T02:28:56.735Z,65.95
2019-05-19T02:31:26.206Z,59.77
2019-05-19T02:33:54.744Z,76.57
2019-05-19T02:36:26.928Z,50.70
2019-05-19T02:38:55.365Z,58.05
2019-05-19T02:41:27.700Z,70.13
2019-05-19T02:43:57.619Z,66.33
2019-05-19T02:46:27.510Z,72.12
2019-05-19T02:48:56.851Z,114.30
2019-05-19T02:51:27.084Z,92.17
2019-05-19T02:53:56.509Z,49.48
2019-05-19T02:56:27.892Z,69.82
2019-05-19T02:58:59.909Z,57.65
2019-05-19T03:01:28.890Z,53.15
2019-05-19T03:03:57.305Z,83.52
2019-05-19T03:06:25.745Z,62.50
2019-05-19T03:08:54.171Z,66.22
2019-05-19T03:11:22.603Z,71.97
2019-05-19T03:13:51.014Z,79.35
2019-05-19T03:16:19.444Z,51.53
2019-05-19T03:18:47.854Z,61.35
2019-05-19T03:21:16.291Z,68.28
2019-05-19T03:23:44.698Z,51.90
2019-05-19T03:26:13.132Z,59.33
2019-05-19T03:28:41.585Z,67.32
2019-05-19T03:31:12.666Z,66.60
2019-05-19T03:33:43.786Z,56.95
2019-05-19T03:36:13.154Z,56.35
2019-05-19T03:38:41.585Z,47.45
2019-05-19T03:41:10.029Z,47.35
2019-05-19T03:43:38.447Z,61.00
2019-05-19T03:46:06.863Z,108.03
2019-05-19T03:48:35.286Z,80.62
2019-05-19T03:51:03.818Z,55.60
2019-05-19T03:53:32.215Z,62.30
2019-05-19T03:56:01.672Z,50.53
2019-05-19T03:58:30.083Z,77.27
2019-05-19T04:00:58.501Z,48.85
2019-05-19T04:03:26.954Z,44.05
2019-05-19T04:05:57.870Z,49.40
2019-05-19T04:08:26.325Z,55.23
2019-05-19T04:10:54.748Z,54.27
2019-05-19T04:13:23.169Z,64.50
2019-05-19T04:15:51.681Z,64.27
2019-05-19T04:18:20.098Z,53.58
2019-05-19T04:20:48.738Z,65.17
2019-05-19T04:23:17.094Z,58.50
2019-05-19T04:25:47.954Z,73.17
2019-05-19T04:28:16.417Z,55.48
2019-05-19T04:30:44.835Z,71.30
2019-05-19T04:33:13.248Z,57.43
2019-05-19T04:35:41.694Z,74.00
2019-05-19T04:38:10.099Z,72.08
2019-05-19T04:40:41.151Z,58.25
2019-05-19T04:43:14.547Z,50.35
2019-05-19T04:45:42.955Z,72.27
2019-05-19T04:48:11.363Z,41.37
2019-05-19T04:50:39.790Z,59.50
2019-05-19T04:53:08.208Z,50.95
2019-05-19T04:55:36.713Z,63.52
2019-05-19T04:58:07.479Z,70.87
2019-05-19T05:00:35.939Z,47.70
2019-05-19T05:03:04.350Z,39.80
2019-05-19T05:05:33.685Z,42.00
2019-05-19T05:08:02.275Z,45.28
2019-05-19T05:10:30.721Z,40.20
2019-05-19T05:12:59.137Z,45.75
2019-05-19T05:15:28.998Z,48.87
2019-05-19T05:17:57.377Z,56.15
2019-05-19T05:20:25.804Z,39.83
2019-05-19T05:22:55.252Z,42.13
2019-05-19T05:25:23.698Z,35.20
2019-05-19T05:27:54.629Z,33.55
2019-05-19T05:30:23.054Z,46.65
2019-05-19T05:32:52.454Z,37.67
2019-05-19T05:35:21.480Z,27.90
2019-05-19T05:37:49.925Z,23.38
2019-05-19T05:40:20.856Z,30.17
2019-05-19T05:42:49.713Z,38.45
2019-05-19T05:45:18.232Z,37.60
2019-05-19T05:47:46.630Z,30.20
2019-05-19T05:50:15.329Z,37.38
2019-05-19T05:52:43.740Z,32.67
2019-05-19T05:55:12.336Z,29.90
2019-05-19T05:57:40.744Z,36.40
2019-05-19T06:00:09.853Z,38.50
2019-05-19T06:02:38.280Z,22.82
2019-05-19T06:05:08.299Z,25.83
2019-05-19T06:07:38.767Z,31.73
2019-05-19T06:10:09.410Z,23.38
2019-05-19T06:12:40.197Z,27.15
2019-05-19T06:15:09.093Z,28.80
2019-05-19T06:17:37.505Z,36.03
2019-05-19T06:20:07.979Z,28.32
2019-05-19T06:22:54.471Z,34.65
2019-05-19T06:25:09.484Z,22.82
2019-05-19T06:27:37.908Z,27.40
2019-05-19T06:30:08.678Z,90.25
2019-05-19T06:32:38.405Z,29.27
2019-05-19T06:35:07.851Z,26.65
2019-05-19T06:37:36.309Z,29.63
2019-05-19T06:40:06.652Z,24.83
2019-05-19T06:42:35.093Z,27.05
2019-05-19T06:45:03.586Z,28.45
2019-05-19T06:47:32.031Z,30.27
2019-05-19T06:50:00.447Z,27.27
2019-05-19T06:52:28.884Z,32.00
2019-05-19T06:54:59.823Z,31.15
2019-05-19T06:57:28.232Z,25.75
2019-05-19T06:59:56.643Z,30.40
2019-05-19T07:02:25.094Z,27.60
2019-05-19T07:04:53.565Z,30.12
2019-05-19T07:07:21.979Z,30.25
2019-05-19T07:09:58.383Z,27.45
2019-05-19T07:12:20.581Z,31.07
2019-05-19T07:14:49.769Z,29.50
2019-05-19T07:17:20.657Z,24.95
2019-05-19T07:19:49.089Z,28.10
2019-05-19T07:22:17.549Z,26.40
2019-05-19T07:24:45.997Z,27.02
2019-05-19T07:27:14.458Z,30.55
2019-05-19T07:29:42.920Z,32.23
2019-05-19T07:32:11.309Z,28.57
2019-05-19T07:34:39.723Z,26.83
2019-05-19T07:37:10.907Z,29.27
2019-05-19T07:39:39.356Z,26.75
2019-05-19T07:42:07.776Z,27.20
2019-05-19T07:44:36.213Z,26.60
2019-05-19T07:47:04.614Z,30.23
2019-05-19T07:49:36.656Z,35.83
2019-05-19T07:52:04.474Z,27.22
2019-05-19T07:54:32.891Z,30.77
2019-05-19T07:57:01.326Z,29.02
2019-05-19T07:59:30.830Z,27.27
2019-05-19T08:01:59.372Z,35.13
2019-05-19T08:04:28.906Z,27.00
2019-05-19T08:06:57.391Z,28.42
2019-05-19T08:09:25.837Z,27.97
2019-05-19T08:11:54.350Z,27.93
2019-05-19T08:14:26.286Z,29.77
2019-05-19T08:16:54.823Z,29.85
2019-05-19T08:19:23.307Z,26.70
2019-05-19T08:21:51.715Z,27.62
2019-05-19T08:24:20.162Z,29.02
2019-05-19T08:26:48.604Z,27.52
2019-05-19T08:29:17.010Z,28.05
2019-05-19T08:31:45.526Z,26.33
2019-05-19T08:34:13.968Z,26.97
2019-05-19T08:36:42.405Z,28.57
2019-05-19T08:39:10.980Z,25.82
2019-05-19T08:41:39.421Z,27.87
2019-05-19T08:44:07.873Z,26.12
2019-05-19T08:46:36.322Z,26.50
2019-05-19T08:49:04.806Z,23.55
2019-05-19T08:51:33.447Z,29.42
2019-05-19T08:54:13.891Z,26.77
2019-05-19T08:56:32.034Z,24.37
2019-05-19T08:59:00.608Z,25.17
2019-05-19T09:01:29.032Z,24.87
2019-05-19T09:03:57.572Z,24.32
2019-05-19T09:06:26.057Z,23.47
2019-05-19T09:08:54.501Z,24.75
2019-05-19T09:11:22.915Z,25.75
2019-05-19T09:13:51.334Z,22.13
2019-05-19T09:16:19.776Z,23.62
2019-05-19T09:18:50.693Z,22.98
2019-05-19T09:21:19.115Z,22.60
2019-05-19T09:23:47.545Z,26.50
2019-05-19T09:26:15.984Z,27.13
2019-05-19T09:28:44.451Z,24.15
2019-05-19T09:31:12.882Z,22.70
2019-05-19T09:33:41.355Z,23.65
2019-05-19T09:36:10.841Z,23.10
2019-05-19T09:38:39.290Z,25.80
2019-05-19T09:41:07.742Z,22.30
2019-05-19T09:43:36.145Z,23.27
2019-05-19T09:46:05.703Z,23.32
2019-05-19T09:48:34.267Z,23.22
2019-05-19T09:51:02.683Z,23.45
2019-05-19T09:53:31.227Z,24.25
2019-05-19T09:55:59.720Z,21.80
2019-05-19T09:58:28.240Z,25.70
2019-05-19T10:00:56.679Z,21.70
2019-05-19T10:03:25.125Z,20.97
2019-05-19T10:05:53.501Z,23.02
2019-05-19T10:08:28.296Z,23.02
2019-05-19T10:11:29.336Z,20.55
2019-05-19T10:14:00.667Z,23.95
2019-05-19T10:16:29.176Z,22.57
2019-05-19T10:18:57.603Z,23.80
2019-05-19T10:21:28.826Z,21.45
2019-05-19T10:23:57.269Z,21.97
2019-05-19T10:26:25.665Z,19.15
2019-05-19T10:28:54.112Z,19.48
2019-05-19T10:31:22.517Z,21.48
2019-05-19T10:33:51.000Z,21.12
2019-05-19T10:36:19.419Z,19.62
2019-05-19T10:38:57.776Z,18.25
2019-05-19T10:41:26.144Z,18.57
2019-05-19T10:44:00.965Z,18.73
2019-05-19T10:46:30.237Z,20.30
2019-05-19T10:48:58.740Z,20.75
2019-05-19T10:51:27.173Z,21.55
2019-05-19T10:53:55.582Z,22.95
2019-05-19T10:56:24.004Z,19.37
2019-05-19T10:58:52.460Z,22.17
2019-05-19T11:01:23.618Z,21.15
2019-05-19T11:03:52.016Z,21.23
2019-05-19T11:06:20.445Z,26.25
2019-05-19T11:08:48.857Z,20.08
2019-05-19T11:11:17.275Z,20.77
2019-05-19T11:13:45.693Z,22.93
2019-05-19T11:16:16.599Z,20.95
2019-05-19T11:18:45.017Z,22.48
2019-05-19T11:21:13.432Z,23.12
2019-05-19T11:23:41.859Z,22.30
2019-05-19T11:26:13.878Z,23.55
2019-05-19T11:28:43.269Z,21.75
2019-05-19T11:31:11.742Z,23.07
2019-05-19T11:33:40.176Z,27.05
2019-05-19T11:36:08.563Z,21.68
2019-05-19T11:38:37.162Z,21.35
2019-05-19T11:41:05.787Z,22.15
2019-05-19T11:43:34.195Z,24.82
2019-05-19T11:46:02.631Z,21.73
2019-05-19T11:48:32.149Z,24.70
2019-05-19T11:51:00.559Z,25.80
2019-05-19T11:53:28.995Z,23.77
2019-05-19T11:56:06.191Z,24.75
2019-05-19T11:58:27.551Z,22.75
2019-05-19T12:00:58.471Z,26.23
2019-05-19T12:03:26.901Z,24.55
2019-05-19T12:05:56.435Z,25.12
2019-05-19T12:08:26.219Z,24.57
2019-05-19T12:10:56.069Z,23.45
2019-05-19T12:13:24.543Z,23.67
2019-05-19T12:15:56.588Z,21.23
2019-05-19T12:18:25.044Z,24.23
2019-05-19T12:20:53.462Z,22.45
2019-05-19T12:23:25.735Z,26.57
2019-05-19T12:25:55.232Z,23.05
2019-05-19T12:28:27.403Z,23.32
2019-05-19T12:30:55.844Z,20.68
2019-05-19T12:33:26.674Z,22.25
2019-05-19T12:35:55.109Z,25.80
2019-05-19T12:38:24.172Z,22.00
2019-05-19T12:40:52.746Z,22.13
2019-05-19T12:43:23.840Z,22.67
2019-05-19T12:45:52.311Z,20.53
2019-05-19T12:48:20.744Z,22.50
2019-05-19T12:50:49.160Z,19.87
2019-05-19T12:53:17.588Z,20.12
2019-05-19T12:55:46.014Z,20.53
2019-05-19T12:58:14.495Z,19.15
2019-05-19T13:00:43.012Z,22.00
2019-05-19T13:03:11.421Z,21.68
2019-05-19T13:05:39.865Z,18.27
2019-05-19T13:08:11.361Z,22.15
2019-05-19T13:10:38.461Z,23.38
2019-05-19T13:13:10.090Z,22.82
2019-05-19T13:15:42.373Z,24.95
2019-05-19T13:18:17.919Z,21.15
2019-05-19T13:20:46.493Z,21.85
2019-05-19T13:23:15.903Z,25.35
2019-05-19T13:25:50.982Z,20.05
2019-05-19T13:28:19.604Z,23.92
2019-05-19T13:30:49.168Z,23.07
2019-05-19T13:33:17.608Z,23.18
2019-05-19T13:35:46.128Z,24.27
2019-05-19T13:38:17.145Z,22.52
2019-05-19T13:40:47.554Z,23.00
2019-05-19T13:43:17.167Z,19.80
2019-05-19T13:45:45.616Z,21.35
2019-05-19T13:48:18.260Z,21.57
2019-05-19T13:50:47.460Z,21.90
2019-05-19T13:53:15.938Z,19.32
2019-05-19T13:55:47.319Z,24.12
2019-05-19T13:58:16.188Z,31.17
2019-05-19T14:00:44.995Z,24.57
2019-05-19T14:03:13.580Z,22.00
2019-05-19T14:05:42.019Z,24.57
2019-05-19T14:08:11.593Z,23.02
2019-05-19T14:10:43.863Z,20.40
2019-05-19T14:15:42.361Z,24.47
2019-05-19T14:18:11.695Z,21.80
2019-05-19T14:20:42.700Z,30.83
2019-05-19T14:23:11.324Z,28.35
2019-05-19T14:25:39.754Z,25.17
2019-05-19T14:28:08.163Z,22.62
2019-05-19T14:30:36.989Z,24.43
2019-05-19T14:33:05.404Z,26.02
2019-05-19T14:35:33.843Z,23.85
2019-05-19T14:38:02.626Z,24.35
2019-05-19T14:40:33.453Z,22.65
2019-05-19T14:43:04.566Z,21.57
2019-05-19T14:45:34.091Z,25.20
2019-05-19T14:48:02.560Z,20.23
2019-05-19T14:50:33.502Z,22.73
2019-05-19T14:53:02.284Z,20.90
2019-05-19T14:55:30.994Z,20.60
2019-05-19T14:57:59.474Z,22.13
2019-05-19T15:00:28.369Z,20.23
2019-05-19T15:02:58.986Z,23.65
2019-05-19T15:05:27.505Z,22.13
2019-05-19T15:07:56.350Z,19.67
2019-05-19T15:10:28.010Z,21.25
2019-05-19T15:12:58.523Z,22.98
2019-05-19T15:15:29.444Z,23.10
2019-05-19T15:17:57.874Z,21.97
2019-05-19T15:20:26.589Z,21.33
2019-05-19T15:22:55.347Z,22.00
2019-05-19T15:25:26.923Z,21.05
2019-05-19T15:28:01.548Z,21.00
2019-05-19T15:30:29.602Z,23.22
2019-05-19T15:33:13.242Z,20.17
2019-05-19T15:35:40.345Z,21.55
2019-05-19T15:38:08.978Z,23.47
2019-05-19T15:40:37.409Z,20.90
2019-05-19T15:43:05.889Z,20.55
2019-05-19T15:45:35.301Z,21.57
2019-05-19T15:48:05.136Z,21.00
2019-05-19T15:50:36.247Z,21.93
2019-05-19T15:53:04.686Z,22.42
2019-05-19T15:55:44.409Z,19.23
2019-05-19T15:58:16.378Z,20.90
2019-05-19T16:00:46.959Z,22.05
2019-05-19T16:05:45.030Z,21.45
2019-05-19T16:08:15.970Z,21.20
2019-05-19T16:10:46.934Z,21.33
2019-05-19T16:13:21.826Z,20.52
2019-05-19T16:15:51.481Z,20.27
2019-05-19T16:18:19.893Z,21.85
2019-05-19T16:20:49.659Z,20.23
2019-05-19T16:23:18.351Z,21.57
2019-05-19T16:25:47.105Z,26.95
2019-05-19T16:28:30.653Z,19.77
2019-05-19T16:30:58.052Z,19.45
2019-05-19T16:33:28.014Z,24.32
2019-05-19T16:36:03.554Z,22.00
2019-05-19T16:38:31.993Z,22.52
2019-05-19T16:41:00.404Z,21.15
2019-05-19T16:43:28.850Z,19.57
2019-05-19T16:45:57.281Z,26.23
2019-05-19T16:48:30.889Z,21.17
2019-05-19T16:51:00.293Z,21.90
2019-05-19T16:53:33.508Z,23.57
2019-05-19T16:56:03.838Z,25.12
2019-05-19T16:58:45.225Z,24.37
2019-05-19T17:01:19.944Z,22.80
2019-05-19T17:03:50.810Z,24.85
2019-05-19T17:06:19.231Z,24.75
2019-05-19T17:08:47.674Z,20.65
2019-05-19T17:11:18.619Z,24.90
2019-05-19T17:13:53.915Z,26.12
2019-05-19T17:16:23.475Z,27.67
2019-05-19T17:18:54.445Z,25.10
2019-05-19T17:21:24.021Z,28.10
2019-05-19T17:23:52.434Z,28.00
2019-05-19T17:26:36.665Z,28.12
2019-05-19T17:29:05.076Z,29.50
2019-05-19T17:31:38.343Z,26.20
2019-05-19T17:34:06.769Z,28.50
2019-05-19T17:36:35.195Z,28.30
2019-05-19T17:39:05.396Z,28.38
2019-05-19T17:41:36.374Z,25.97
2019-05-19T17:44:04.790Z,24.25
2019-05-19T17:46:38.136Z,27.07
2019-05-19T17:49:06.673Z,25.85
2019-05-19T17:51:35.084Z,28.15
2019-05-19T17:54:06.765Z,25.60
2019-05-19T17:56:36.101Z,27.32
2019-05-19T17:59:16.076Z,27.27
2019-05-19T18:01:34.840Z,26.50
2019-05-19T18:04:03.273Z,24.52
2019-05-19T18:06:32.742Z,26.97
2019-05-19T18:09:01.181Z,29.40
2019-05-19T18:11:29.624Z,27.82
2019-05-19T18:14:02.238Z,26.60
2019-05-19T18:16:30.639Z,27.32
2019-05-19T18:19:02.852Z,29.92
2019-05-19T18:21:31.283Z,26.17
2019-05-19T18:23:59.695Z,24.43
2019-05-19T18:26:31.103Z,28.93
2019-05-19T18:28:59.516Z,28.05
2019-05-19T18:31:31.131Z,25.95
2019-05-19T18:33:59.631Z,28.27
2019-05-19T18:36:28.896Z,29.37
2019-05-19T18:39:01.207Z,31.37
2019-05-19T18:41:32.848Z,31.50
2019-05-19T18:44:05.327Z,31.10
2019-05-19T18:46:33.795Z,32.90
2019-05-19T18:49:05.807Z,30.88
2019-05-19T18:51:34.223Z,33.67
2019-05-19T18:54:02.712Z,37.25
2019-05-19T18:56:31.135Z,32.00
2019-05-19T18:59:00.889Z,31.75
2019-05-19T19:01:29.333Z,34.10
2019-05-19T19:04:05.094Z,34.13
2019-05-19T19:06:34.018Z,35.23
2019-05-19T19:09:03.058Z,35.20
2019-05-19T19:11:31.481Z,40.17
2019-05-19T19:14:00.396Z,37.48
2019-05-19T19:16:31.261Z,39.83
2019-05-19T19:19:00.879Z,38.90
2019-05-19T19:21:29.306Z,42.80
2019-05-19T19:23:57.718Z,42.27
2019-05-19T19:26:26.158Z,44.40
2019-05-19T19:28:58.529Z,46.05
2019-05-19T19:33:58.764Z,46.13
2019-05-19T19:36:28.229Z,49.67
2019-05-19T19:38:57.709Z,52.00
2019-05-19T19:41:30.525Z,50.63
2019-05-19T19:43:58.982Z,51.02
2019-05-19T19:46:29.053Z,55.88
2019-05-19T19:49:00.946Z,49.40
2019-05-19T19:51:29.358Z,50.63
2019-05-19T19:53:57.810Z,50.35
2019-05-19T19:56:30.781Z,54.13
2019-05-19T19:59:01.012Z,53.38
2019-05-19T20:01:29.418Z,54.73
2019-05-19T20:03:58.913Z,52.67
2019-05-19T20:06:29.932Z,54.63
2019-05-19T20:09:05.948Z,53.60
2019-05-19T20:11:35.359Z,46.90
2019-05-19T20:14:03.782Z,51.68
2019-05-19T20:16:33.364Z,50.40
2019-05-19T20:19:01.775Z,47.10
2019-05-19T20:21:31.250Z,47.20
2019-05-19T20:24:02.334Z,48.70
2019-05-19T20:26:31.735Z,46.37
2019-05-19T20:29:03.961Z,50.00
2019-05-19T20:31:34.368Z,45.65
2019-05-19T20:34:02.845Z,52.17
2019-05-19T20:36:34.838Z,50.63
2019-05-19T20:39:04.895Z,48.28
2019-05-19T20:41:33.346Z,47.23
2019-05-19T20:44:09.778Z,49.53
2019-05-19T20:46:38.180Z,50.77
2019-05-19T20:49:06.633Z,51.83
2019-05-19T20:51:35.092Z,59.88
2019-05-19T20:54:03.491Z,54.00
2019-05-19T20:56:32.884Z,58.10
2019-05-19T20:59:01.293Z,55.98
2019-05-19T21:01:48.632Z,62.10
2019-05-19T21:04:20.593Z,65.08
2019-05-19T21:06:52.685Z,62.25
2019-05-19T21:09:21.082Z,63.13
2019-05-19T21:11:49.959Z,64.67
2019-05-19T21:14:20.291Z,68.83
2019-05-19T21:16:49.795Z,67.35
2019-05-19T21:19:22.073Z,72.05
2019-05-19T21:21:51.842Z,70.92
2019-05-19T21:27:23.633Z,70.10
2019-05-19T21:30:14.219Z,81.08
2019-05-19T21:32:44.631Z,77.62
2019-05-19T21:35:13.078Z,83.50
2019-05-19T21:37:48.718Z,85.12
2019-05-19T21:40:17.566Z,79.10
2019-05-19T21:42:52.443Z,88.60
2019-05-19T21:45:27.210Z,66.37
2019-05-19T21:47:55.629Z,72.67
2019-05-19T21:50:25.069Z,76.07
2019-05-19T21:52:53.511Z,84.25
2019-05-19T21:55:21.932Z,73.55
2019-05-19T21:57:52.914Z,74.50
2019-05-19T22:00:24.558Z,85.30
2019-05-19T22:02:53.021Z,90.07
2019-05-19T22:05:21.603Z,80.57
2019-05-19T22:07:57.773Z,90.03
2019-05-19T22:10:26.242Z,105.78
2019-05-19T22:12:57.175Z,67.45
2019-05-19T22:15:28.031Z,77.75
2019-05-19T22:17:59.082Z,69.27
2019-05-19T22:20:27.537Z,77.13
2019-05-19T22:22:55.948Z,79.85
2019-05-19T22:25:29.812Z,61.95
2019-05-19T22:27:59.266Z,68.12
2019-05-19T22:30:27.687Z,89.85
2019-05-19T22:32:58.645Z,84.13
2019-05-19T22:35:27.961Z,72.20
2019-05-19T22:38:03.198Z,79.92
2019-05-19T22:40:33.652Z,74.37
2019-05-19T22:43:11.166Z,78.07
2019-05-19T22:45:42.252Z,71.25
2019-05-19T22:48:12.753Z,82.45
2019-05-19T22:50:43.282Z,98.42
2019-05-19T22:53:14.933Z,107.87
2019-05-19T22:58:17.932Z,76.77
2019-05-19T23:00:46.323Z,81.60
2019-05-19T23:03:14.757Z,88.15
2019-05-19T23:05:43.166Z,68.50
2019-05-19T23:08:11.581Z,71.12
2019-05-19T23:10:40.040Z,114.82
2019-05-19T23:13:11.198Z,73.92
2019-05-19T23:15:43.568Z,73.13
2019-05-19T23:18:14.400Z,58.23
2019-05-19T23:20:42.809Z,54.70
2019-05-19T23:23:11.267Z,91.22
2019-05-19T23:25:42.221Z,58.50
2019-05-19T23:28:11.646Z,50.33
2019-05-19T23:30:40.068Z,51.35
2019-05-19T23:33:08.505Z,42.10
2019-05-19T23:35:36.926Z,44.58
2019-05-19T23:38:05.344Z,50.30
2019-05-19T23:40:33.766Z,56.20
2019-05-19T23:43:05.144Z,50.15
2019-05-19T23:45:36.293Z,50.83
2019-05-19T23:48:08.484Z,48.08
2019-05-19T23:53:08.226Z,37.28
2019-05-19T23:55:37.701Z,34.13
2019-05-19T23:58:06.140Z,45.17
